createdAt,value
2018-12-12T00:01:07.050Z,2.80
2018-12-12T00:03:10.254Z,2.40
2018-12-12T00:05:13.751Z,2.62
2018-12-12T00:07:17.570Z,2.90
2018-12-12T00:09:21.071Z,2.90
2018-12-12T00:11:24.633Z,2.67
2018-12-12T00:13:28.242Z,2.80
2018-12-12T00:15:32.684Z,2.92
2018-12-12T00:17:36.798Z,2.70
2018-12-12T00:19:40.070Z,2.50
2018-12-12T00:21:43.336Z,2.90
2018-12-12T00:23:46.866Z,2.87
2018-12-12T00:25:50.442Z,3.10
2018-12-12T00:27:53.954Z,2.90
2018-12-12T00:29:57.438Z,2.90
2018-12-12T00:32:01.097Z,2.83
2018-12-12T00:34:05.470Z,3.12
2018-12-12T00:36:09.018Z,3.07
2018-12-12T00:38:12.516Z,3.30
2018-12-12T00:40:16.134Z,2.80
2018-12-12T00:42:19.586Z,3.10
2018-12-12T00:44:23.050Z,2.90
2018-12-12T00:46:26.440Z,3.20
2018-12-12T00:48:29.932Z,3.00
2018-12-12T00:50:33.806Z,3.08
2018-12-12T00:52:37.330Z,3.00
2018-12-12T00:54:41.026Z,3.05
2018-12-12T00:56:44.522Z,3.15
2018-12-12T00:58:47.881Z,3.30
2018-12-12T01:00:51.400Z,3.35
2018-12-12T01:02:54.894Z,3.20
2018-12-12T01:04:58.794Z,3.22
2018-12-12T01:07:02.130Z,3.30
2018-12-12T01:09:08.446Z,3.15
2018-12-12T01:11:17.600Z,3.40
2018-12-12T01:13:21.578Z,3.47
2018-12-12T01:15:25.418Z,3.40
2018-12-12T01:17:28.694Z,3.50
2018-12-12T01:19:32.190Z,3.58
2018-12-12T01:21:35.699Z,3.72
2018-12-12T01:23:38.949Z,3.30
2018-12-12T01:25:42.460Z,3.33
2018-12-12T01:27:46.758Z,3.98
2018-12-12T01:29:51.029Z,3.60
2018-12-12T01:31:54.876Z,4.10
2018-12-12T01:33:58.099Z,3.90
2018-12-12T01:36:01.410Z,4.13
2018-12-12T01:38:04.914Z,3.40
2018-12-12T01:40:08.805Z,3.80
2018-12-12T01:42:12.558Z,4.17
2018-12-12T01:44:16.458Z,3.80
2018-12-12T01:46:20.082Z,4.08
2018-12-12T01:48:23.578Z,3.90
2018-12-12T01:50:26.767Z,4.00
2018-12-12T01:52:30.390Z,4.30
2018-12-12T01:54:33.881Z,4.20
2018-12-12T01:56:37.566Z,4.10
2018-12-12T01:58:41.032Z,3.37
2018-12-12T02:00:44.570Z,4.00
2018-12-12T02:02:48.330Z,3.80
2018-12-12T02:04:51.515Z,3.07
2018-12-12T02:06:55.021Z,3.60
2018-12-12T02:08:58.470Z,3.80
2018-12-12T02:11:01.654Z,3.60
2018-12-12T02:13:16.366Z,3.50
2018-12-12T02:15:19.706Z,3.40
2018-12-12T02:17:22.922Z,3.92
2018-12-12T02:19:26.335Z,4.10
2018-12-12T02:21:29.817Z,4.00
2018-12-12T02:23:33.700Z,3.90
2018-12-12T02:25:37.620Z,3.90
2018-12-12T02:27:41.087Z,3.90
2018-12-12T02:29:44.711Z,3.80
2018-12-12T02:31:48.852Z,3.83
2018-12-12T02:33:52.422Z,3.80
2018-12-12T02:35:55.615Z,3.80
2018-12-12T02:37:59.778Z,4.50
2018-12-12T02:40:03.516Z,3.80
2018-12-12T02:42:07.663Z,4.10
2018-12-12T02:44:11.052Z,3.95
2018-12-12T02:46:14.537Z,4.10
2018-12-12T02:48:18.451Z,3.80
2018-12-12T02:50:23.176Z,4.20
2018-12-12T02:52:26.999Z,3.90
2018-12-12T02:54:30.556Z,3.90
2018-12-12T02:56:34.082Z,4.22
2018-12-12T02:58:38.224Z,4.00
2018-12-12T03:00:41.720Z,4.28
2018-12-12T03:02:45.225Z,4.00
2018-12-12T03:04:48.712Z,3.90
2018-12-12T03:06:51.939Z,4.10
2018-12-12T03:08:55.612Z,3.80
2018-12-12T03:10:59.082Z,3.80
2018-12-12T03:13:02.709Z,4.13
2018-12-12T03:15:07.115Z,4.12
2018-12-12T03:17:10.902Z,4.00
2018-12-12T03:19:14.388Z,4.20
2018-12-12T03:21:18.315Z,4.53
2018-12-12T03:23:21.782Z,4.20
2018-12-12T03:25:25.290Z,3.70
2018-12-12T03:27:28.937Z,4.30
2018-12-12T03:29:32.836Z,4.10
2018-12-12T03:31:36.048Z,4.30
2018-12-12T03:33:39.771Z,3.90
2018-12-12T03:35:42.923Z,3.70
2018-12-12T03:37:46.726Z,4.40
2018-12-12T03:39:50.214Z,3.90
2018-12-12T03:41:53.966Z,4.10
2018-12-12T03:43:57.390Z,4.40
2018-12-12T03:46:00.818Z,4.23
2018-12-12T03:48:04.707Z,4.10
2018-12-12T03:50:09.246Z,3.95
2018-12-12T03:52:13.172Z,4.30
2018-12-12T03:54:16.650Z,3.67
2018-12-12T03:56:19.851Z,3.85
2018-12-12T03:58:23.834Z,3.80
2018-12-12T04:00:27.415Z,3.50
2018-12-12T04:02:31.163Z,3.80
2018-12-12T04:04:34.391Z,4.10
2018-12-12T04:06:38.747Z,3.80
2018-12-12T04:08:42.221Z,3.70
2018-12-12T04:10:45.798Z,3.40
2018-12-12T04:12:49.336Z,3.47
2018-12-12T04:14:53.264Z,3.50
2018-12-12T04:16:56.814Z,3.98
2018-12-12T04:19:00.518Z,3.30
2018-12-12T04:21:04.011Z,3.90
2018-12-12T04:23:07.417Z,3.40
2018-12-12T04:25:11.930Z,3.90
2018-12-12T04:27:15.362Z,3.70
2018-12-12T04:29:18.883Z,3.67
2018-12-12T04:31:22.482Z,3.33
2018-12-12T04:33:26.056Z,3.20
2018-12-12T04:35:30.397Z,3.50
2018-12-12T04:37:33.998Z,3.67
2018-12-12T04:39:37.554Z,3.50
2018-12-12T04:41:40.771Z,3.70
2018-12-12T04:43:44.002Z,3.62
2018-12-12T04:45:47.178Z,3.00
2018-12-12T04:47:51.291Z,3.40
2018-12-12T04:49:55.197Z,3.60
2018-12-12T04:51:58.411Z,3.50
2018-12-12T04:54:01.895Z,3.30
2018-12-12T04:56:05.792Z,3.35
2018-12-12T04:58:09.693Z,2.95
2018-12-12T05:00:14.107Z,3.30
2018-12-12T05:02:22.025Z,3.00
2018-12-12T05:04:25.622Z,2.90
2018-12-12T05:06:28.852Z,3.40
2018-12-12T05:08:32.330Z,3.30
2018-12-12T05:10:35.818Z,3.02
2018-12-12T05:12:39.006Z,3.10
2018-12-12T05:14:42.259Z,3.20
2018-12-12T05:16:45.878Z,3.40
2018-12-12T05:18:49.354Z,3.12
2018-12-12T05:20:52.842Z,3.20
2018-12-12T05:22:56.377Z,2.80
2018-12-12T05:24:59.874Z,2.95
2018-12-12T05:27:03.407Z,2.85
2018-12-12T05:29:07.071Z,2.83
2018-12-12T05:31:10.743Z,2.90
2018-12-12T05:33:14.288Z,3.00
2018-12-12T05:35:17.742Z,2.90
2018-12-12T05:37:21.206Z,2.80
2018-12-12T05:39:25.698Z,2.90
2018-12-12T05:41:29.292Z,3.20
2018-12-12T05:43:32.730Z,3.15
2018-12-12T05:45:37.032Z,3.00
2018-12-12T05:47:40.912Z,3.20
2018-12-12T05:49:44.638Z,3.15
2018-12-12T05:51:48.180Z,3.00
2018-12-12T05:53:51.984Z,3.10
2018-12-12T05:55:55.197Z,2.90
2018-12-12T05:57:58.402Z,2.90
2018-12-12T06:00:01.955Z,3.10
2018-12-12T06:02:05.406Z,2.77
2018-12-12T06:04:08.608Z,2.73
2018-12-12T06:06:12.533Z,3.00
2018-12-12T06:08:15.698Z,2.90
2018-12-12T06:10:19.293Z,2.70
2018-12-12T06:12:22.742Z,2.60
2018-12-12T06:14:26.079Z,2.60
2018-12-12T06:16:29.872Z,2.50
2018-12-12T06:18:33.074Z,2.87
2018-12-12T06:20:36.298Z,2.80
2018-12-12T06:22:39.963Z,2.63
2018-12-12T06:24:44.041Z,2.80
2018-12-12T06:26:47.529Z,2.77
2018-12-12T06:28:50.746Z,2.60
2018-12-12T06:30:54.668Z,2.72
2018-12-12T06:32:58.471Z,2.80
2018-12-12T06:35:02.116Z,2.58
2018-12-12T06:37:05.603Z,2.77
2018-12-12T06:39:09.474Z,2.67
2018-12-12T06:41:13.312Z,2.83
2018-12-12T06:43:16.795Z,2.67
2018-12-12T06:45:20.249Z,2.60
2018-12-12T06:47:23.477Z,2.60
2018-12-12T06:49:26.718Z,2.70
2018-12-12T06:51:30.262Z,2.80
2018-12-12T06:53:33.998Z,2.50
2018-12-12T06:55:37.667Z,2.90
2018-12-12T06:57:40.814Z,2.90
2018-12-12T06:59:44.046Z,2.80
2018-12-12T07:01:47.580Z,2.70
2018-12-12T07:03:51.235Z,2.90
2018-12-12T07:05:55.215Z,2.95
2018-12-12T07:07:58.630Z,2.90
2018-12-12T07:10:02.848Z,2.70
2018-12-12T07:12:06.578Z,2.70
2018-12-12T07:14:10.290Z,3.33
2018-12-12T07:16:14.241Z,3.00
2018-12-12T07:18:17.894Z,2.77
2018-12-12T07:20:21.682Z,3.00
2018-12-12T07:22:27.049Z,2.85
2018-12-12T07:24:30.522Z,3.05
2018-12-12T07:26:34.318Z,3.10
2018-12-12T07:28:37.844Z,2.85
2018-12-12T07:30:41.346Z,3.22
2018-12-12T07:32:45.143Z,2.90
2018-12-12T07:34:48.330Z,2.95
2018-12-12T07:36:51.905Z,3.17
2018-12-12T07:38:55.415Z,3.15
2018-12-12T07:40:58.644Z,3.05
2018-12-12T07:43:02.114Z,3.20
2018-12-12T07:45:06.680Z,3.10
2018-12-12T07:47:09.952Z,3.10
2018-12-12T07:49:16.537Z,3.50
2018-12-12T07:51:20.066Z,3.17
2018-12-12T07:53:23.338Z,3.33
2018-12-12T07:55:26.560Z,2.90
2018-12-12T07:57:30.085Z,3.20
2018-12-12T07:59:33.590Z,3.20
2018-12-12T08:01:37.006Z,3.20
2018-12-12T08:03:40.507Z,3.37
2018-12-12T08:05:43.888Z,3.40
2018-12-12T08:07:47.719Z,3.50
2018-12-12T08:09:50.926Z,3.30
2018-12-12T08:11:54.344Z,3.20
2018-12-12T08:13:58.493Z,3.40
2018-12-12T08:16:02.505Z,3.30
2018-12-12T08:18:06.790Z,3.40
2018-12-12T08:20:10.756Z,3.05
2018-12-12T08:22:14.695Z,3.10
2018-12-12T08:24:18.161Z,3.20
2018-12-12T08:26:21.991Z,3.40
2018-12-12T08:28:25.495Z,3.02
2018-12-12T08:30:28.690Z,2.75
2018-12-12T08:32:32.498Z,3.10
2018-12-12T08:34:35.998Z,2.85
2018-12-12T08:36:39.186Z,2.90
2018-12-12T08:38:42.729Z,3.00
2018-12-12T08:40:46.210Z,2.87
2018-12-12T08:42:50.032Z,3.12
2018-12-12T08:44:53.771Z,3.25
2018-12-12T08:46:57.243Z,3.52
2018-12-12T08:49:00.471Z,3.27
2018-12-12T08:51:04.424Z,3.02
2018-12-12T08:53:07.954Z,3.30
2018-12-12T08:55:17.464Z,3.33
2018-12-12T08:57:17.655Z,3.17
2018-12-12T08:59:21.238Z,3.80
2018-12-12T09:01:26.096Z,3.30
2018-12-12T09:03:29.715Z,3.10
2018-12-12T09:05:34.862Z,3.47
2018-12-12T09:07:38.418Z,3.20
2018-12-12T09:09:42.042Z,3.30
2018-12-12T09:11:45.955Z,3.30
2018-12-12T09:13:49.562Z,3.50
2018-12-12T09:15:52.758Z,3.58
2018-12-12T09:17:56.082Z,4.60
2018-12-12T09:19:59.982Z,9.15
2018-12-12T09:22:03.531Z,4.12
2018-12-12T09:24:07.028Z,3.90
2018-12-12T09:26:10.571Z,3.95
2018-12-12T09:28:14.498Z,3.52
2018-12-12T09:30:18.199Z,3.47
2018-12-12T09:32:21.672Z,4.17
2018-12-12T09:34:24.922Z,3.95
2018-12-12T09:36:28.125Z,4.30
2018-12-12T09:38:31.642Z,4.10
2018-12-12T09:40:35.510Z,3.95
2018-12-12T09:42:39.009Z,3.80
2018-12-12T09:44:42.518Z,4.20
2018-12-12T09:46:46.014Z,4.05
2018-12-12T09:48:49.954Z,4.65
2018-12-12T09:50:53.478Z,3.90
2018-12-12T09:52:56.994Z,4.20
2018-12-12T09:55:00.526Z,4.10
2018-12-12T09:57:04.597Z,4.00
2018-12-12T09:59:08.598Z,4.20
2018-12-12T10:01:12.134Z,4.78
2018-12-12T10:03:15.602Z,4.30
2018-12-12T10:05:19.114Z,4.60
2018-12-12T10:07:22.594Z,4.30
2018-12-12T10:09:26.459Z,4.60
2018-12-12T10:11:30.022Z,4.65
2018-12-12T10:13:33.486Z,4.15
2018-12-12T10:15:36.994Z,4.37
2018-12-12T10:17:40.186Z,4.62
2018-12-12T10:19:43.435Z,4.40
2018-12-12T10:21:47.522Z,4.00
2018-12-12T10:23:51.046Z,4.40
2018-12-12T10:25:54.578Z,4.60
2018-12-12T10:27:58.407Z,5.00
2018-12-12T10:30:01.935Z,4.83
2018-12-12T10:32:05.879Z,4.80
2018-12-12T10:34:09.332Z,4.75
2018-12-12T10:36:12.786Z,4.80
2018-12-12T10:38:16.978Z,4.90
2018-12-12T10:40:20.498Z,5.00
2018-12-12T10:42:23.972Z,4.40
2018-12-12T10:44:27.733Z,4.40
2018-12-12T10:46:31.290Z,5.00
2018-12-12T10:48:34.751Z,5.10
2018-12-12T10:50:38.316Z,4.75
2018-12-12T10:52:42.118Z,5.60
2018-12-12T10:54:45.306Z,4.50
2018-12-12T10:56:49.047Z,5.12
2018-12-12T10:58:52.296Z,5.47
2018-12-12T11:02:05.426Z,5.30
2018-12-12T11:04:09.266Z,5.25
2018-12-12T11:06:13.162Z,5.65
2018-12-12T11:08:17.270Z,5.75
2018-12-12T11:10:20.760Z,5.40
2018-12-12T11:12:24.694Z,5.30
2018-12-12T11:14:28.174Z,6.00
2018-12-12T11:16:31.399Z,5.40
2018-12-12T11:18:34.603Z,5.23
2018-12-12T11:20:38.162Z,4.90
2018-12-12T11:22:41.626Z,5.30
2018-12-12T11:24:45.231Z,5.30
2018-12-12T11:26:49.156Z,5.72
2018-12-12T11:28:52.662Z,6.25
2018-12-12T11:30:56.156Z,5.72
2018-12-12T11:32:59.958Z,5.28
2018-12-12T11:35:04.650Z,5.25
2018-12-12T11:37:08.143Z,5.67
2018-12-12T11:39:11.674Z,4.95
2018-12-12T11:41:15.244Z,5.40
2018-12-12T11:43:18.762Z,5.20
2018-12-12T11:45:22.059Z,5.62
2018-12-12T11:47:25.260Z,5.00
2018-12-12T11:49:28.498Z,5.57
2018-12-12T11:51:32.030Z,6.37
2018-12-12T11:53:35.553Z,6.10
2018-12-12T11:55:38.778Z,5.43
2018-12-12T11:57:42.592Z,5.53
2018-12-12T11:59:46.545Z,5.20
2018-12-12T12:01:50.017Z,5.42
2018-12-12T12:03:56.800Z,5.70
2018-12-12T12:05:59.450Z,4.83
2018-12-12T12:08:03.974Z,5.30
2018-12-12T12:10:10.509Z,5.25
2018-12-12T12:12:14.278Z,4.57
2018-12-12T12:14:17.734Z,5.28
2018-12-12T12:16:21.183Z,5.10
2018-12-12T12:18:24.737Z,4.75
2018-12-12T12:20:28.219Z,4.87
2018-12-12T12:22:32.016Z,4.85
2018-12-12T12:24:35.512Z,4.53
2018-12-12T12:26:39.039Z,4.60
2018-12-12T12:28:42.796Z,3.80
2018-12-12T12:30:46.010Z,4.20
2018-12-12T12:32:49.498Z,4.55
2018-12-12T12:34:53.257Z,4.17
2018-12-12T12:36:56.823Z,4.47
2018-12-12T12:39:00.371Z,4.10
2018-12-12T12:41:04.249Z,4.40
2018-12-12T12:43:07.752Z,4.25
2018-12-12T12:45:11.242Z,4.53
2018-12-12T12:47:15.076Z,5.30
2018-12-12T12:49:18.958Z,4.75
2018-12-12T12:51:22.178Z,4.30
2018-12-12T12:53:25.674Z,4.33
2018-12-12T12:55:29.575Z,5.00
2018-12-12T12:57:33.370Z,5.75
2018-12-12T12:59:37.866Z,5.10
2018-12-12T13:01:41.863Z,3.87
2018-12-12T13:03:45.338Z,3.60
2018-12-12T13:05:49.590Z,3.25
2018-12-12T13:07:53.094Z,3.45
2018-12-12T13:09:57.000Z,3.90
2018-12-12T13:12:00.747Z,3.90
2018-12-12T13:14:05.078Z,3.90
2018-12-12T13:16:08.566Z,3.60
2018-12-12T13:18:12.209Z,3.20
2018-12-12T13:20:16.092Z,3.80
2018-12-12T13:22:20.092Z,3.40
2018-12-12T13:24:23.755Z,3.10
2018-12-12T13:26:26.934Z,3.08
2018-12-12T13:28:30.145Z,2.98
2018-12-12T13:30:35.166Z,2.90
2018-12-12T13:32:38.657Z,2.80
2018-12-12T13:34:42.128Z,3.00
2018-12-12T13:36:45.583Z,3.08
2018-12-12T13:38:49.372Z,3.10
2018-12-12T13:40:53.209Z,3.10
2018-12-12T13:42:56.762Z,3.35
2018-12-12T13:45:00.284Z,3.70
2018-12-12T13:47:04.254Z,3.50
2018-12-12T13:49:07.449Z,3.60
2018-12-12T13:51:10.630Z,3.70
2018-12-12T13:53:14.644Z,3.60
2018-12-12T13:55:18.243Z,3.80
2018-12-12T13:57:21.704Z,4.35
2018-12-12T13:59:25.182Z,4.20
2018-12-12T14:01:29.690Z,5.03
2018-12-12T14:03:33.481Z,5.20
2018-12-12T14:05:37.184Z,4.20
2018-12-12T14:07:40.616Z,4.45
2018-12-12T14:09:44.131Z,4.00
2018-12-12T14:11:47.667Z,3.95
2018-12-12T14:13:50.881Z,4.28
2018-12-12T14:15:54.095Z,4.93
2018-12-12T14:17:57.605Z,5.12
2018-12-12T14:20:01.246Z,4.80
2018-12-12T14:22:05.058Z,4.90
2018-12-12T14:24:08.559Z,5.10
2018-12-12T14:26:12.056Z,4.92
2018-12-12T14:28:15.526Z,5.05
2018-12-12T14:30:18.756Z,4.90
2018-12-12T14:32:22.658Z,4.92
2018-12-12T14:34:29.261Z,4.30
2018-12-12T14:36:32.450Z,4.72
2018-12-12T14:38:36.018Z,4.40
2018-12-12T14:40:39.565Z,4.10
2018-12-12T14:42:43.496Z,4.70
2018-12-12T14:44:47.325Z,4.87
2018-12-12T14:46:50.814Z,4.45
2018-12-12T14:48:54.367Z,4.13
2018-12-12T14:50:57.957Z,4.10
2018-12-12T14:53:01.741Z,4.35
2018-12-12T14:55:05.851Z,4.25
2018-12-12T14:57:09.317Z,4.30
2018-12-12T14:59:13.095Z,4.00
2018-12-12T15:01:16.676Z,4.08
2018-12-12T15:03:19.879Z,3.70
2018-12-12T15:05:23.390Z,3.80
2018-12-12T15:07:26.894Z,4.45
2018-12-12T15:09:30.802Z,4.60
2018-12-12T15:11:36.337Z,4.30
2018-12-12T15:13:39.946Z,4.60
2018-12-12T15:15:43.439Z,4.10
2018-12-12T15:17:46.638Z,4.50
2018-12-12T15:19:50.527Z,3.80
2018-12-12T15:21:53.707Z,4.50
2018-12-12T15:23:56.964Z,4.17
2018-12-12T15:26:00.814Z,4.40
2018-12-12T15:28:04.569Z,4.40
2018-12-12T15:30:08.859Z,4.20
2018-12-12T15:32:12.541Z,4.45
2018-12-12T15:34:16.035Z,4.90
2018-12-12T15:36:19.598Z,4.50
2018-12-12T15:38:23.145Z,4.95
2018-12-12T15:40:26.715Z,4.70
2018-12-12T15:42:30.212Z,4.60
2018-12-12T15:44:33.718Z,4.22
2018-12-12T15:46:37.988Z,4.20
2018-12-12T15:48:41.463Z,4.25
2018-12-12T15:50:44.981Z,4.75
2018-12-12T15:52:48.650Z,4.40
2018-12-12T15:54:52.103Z,4.20
2018-12-12T15:56:55.898Z,4.00
2018-12-12T15:58:59.364Z,4.35
2018-12-12T16:01:02.568Z,4.50
2018-12-12T16:03:06.351Z,4.90
2018-12-12T16:05:09.783Z,3.90
2018-12-12T16:07:13.308Z,4.60
2018-12-12T16:09:17.138Z,4.62
2018-12-12T16:11:21.410Z,5.22
2018-12-12T16:13:24.874Z,4.70
2018-12-12T16:15:28.106Z,4.30
2018-12-12T16:17:31.326Z,4.50
2018-12-12T16:19:34.787Z,4.58
2018-12-12T16:21:38.479Z,4.97
2018-12-12T16:23:42.404Z,4.70
2018-12-12T16:25:46.624Z,4.72
2018-12-12T16:27:50.146Z,4.45
2018-12-12T16:29:53.691Z,4.20
2018-12-12T16:31:56.902Z,4.10
2018-12-12T16:34:01.051Z,4.70
2018-12-12T16:36:07.119Z,4.47
2018-12-12T16:38:10.683Z,4.78
2018-12-12T16:40:14.178Z,4.83
2018-12-12T16:42:17.822Z,4.80
2018-12-12T16:44:21.290Z,4.90
2018-12-12T16:48:39.238Z,5.50
2018-12-12T16:50:42.744Z,4.50
2018-12-12T16:52:46.242Z,5.45
2018-12-12T16:54:50.198Z,9.38
2018-12-12T16:56:53.759Z,5.62
2018-12-12T17:01:35.480Z,5.30
2018-12-12T17:03:39.058Z,5.20
2018-12-12T17:05:42.242Z,5.35
2018-12-12T17:07:45.493Z,5.60
2018-12-12T17:09:49.073Z,5.75
2018-12-12T17:11:52.678Z,4.97
2018-12-12T17:13:56.578Z,5.45
2018-12-12T17:16:00.188Z,5.60
2018-12-12T17:18:04.012Z,6.22
2018-12-12T17:20:08.710Z,6.20
2018-12-12T17:22:12.210Z,4.90
2018-12-12T17:24:15.686Z,5.33
2018-12-12T17:26:19.198Z,5.08
2018-12-12T17:28:22.964Z,5.70
2018-12-12T17:30:26.961Z,4.97
2018-12-12T17:32:30.758Z,4.87
2018-12-12T17:34:34.271Z,5.00
2018-12-12T17:36:37.517Z,4.78
2018-12-12T17:38:40.840Z,5.30
2018-12-12T17:40:44.302Z,4.70
2018-12-12T17:42:47.849Z,5.30
2018-12-12T17:44:51.497Z,5.70
2018-12-12T17:46:55.302Z,5.70
2018-12-12T17:48:59.081Z,5.22
2018-12-12T17:51:02.801Z,4.50
2018-12-12T17:53:06.777Z,6.20
2018-12-12T17:55:10.788Z,5.60
2018-12-12T17:57:14.290Z,5.33
2018-12-12T17:59:17.494Z,5.25
2018-12-12T18:01:21.499Z,4.37
2018-12-12T18:03:25.287Z,4.75
2018-12-12T18:05:28.779Z,4.90
2018-12-12T18:07:32.594Z,4.20
2018-12-12T18:09:36.074Z,5.40
2018-12-12T18:11:39.733Z,7.10
2018-12-12T18:13:43.134Z,11.50
2018-12-12T18:15:46.613Z,5.08
2018-12-12T18:17:50.150Z,4.67
2018-12-12T18:19:53.389Z,3.93
2018-12-12T18:21:56.854Z,5.10
2018-12-12T18:24:00.325Z,4.37
2018-12-12T18:26:03.947Z,4.33
2018-12-12T18:28:07.680Z,4.37
2018-12-12T18:30:11.590Z,4.60
2018-12-12T18:32:14.755Z,4.15
2018-12-12T18:34:18.395Z,4.90
2018-12-12T18:36:22.080Z,5.00
2018-12-12T18:38:25.884Z,4.53
2018-12-12T18:40:29.215Z,5.20
2018-12-12T18:42:32.807Z,4.50
2018-12-12T18:44:36.818Z,4.85
2018-12-12T18:46:40.398Z,4.80
2018-12-12T18:48:43.906Z,4.92
2018-12-12T18:50:47.370Z,6.10
2018-12-12T18:52:51.155Z,5.78
2018-12-12T18:54:54.679Z,5.78
2018-12-12T18:56:58.418Z,5.10
2018-12-12T18:59:02.243Z,5.78
2018-12-12T19:01:06.518Z,5.60
2018-12-12T19:03:10.460Z,6.00
2018-12-12T19:05:14.363Z,6.62
2018-12-12T19:07:18.246Z,6.17
2018-12-12T19:09:22.156Z,5.65
2018-12-12T19:11:25.378Z,4.70
2018-12-12T19:13:28.902Z,4.92
2018-12-12T19:15:32.789Z,4.70
2018-12-12T19:17:36.907Z,4.80
2018-12-12T19:19:40.363Z,5.55
2018-12-12T19:21:44.566Z,5.87
2018-12-12T19:23:47.794Z,5.60
2018-12-12T19:25:51.746Z,5.20
2018-12-12T19:27:55.253Z,5.92
2018-12-12T19:29:58.916Z,5.60
2018-12-12T19:32:02.711Z,5.20
2018-12-12T19:34:05.971Z,5.62
2018-12-12T19:36:09.508Z,5.80
2018-12-12T19:38:13.007Z,7.20
2018-12-12T19:40:16.254Z,5.90
2018-12-12T19:42:19.460Z,5.50
2018-12-12T19:44:22.949Z,5.67
2018-12-12T19:46:26.450Z,6.20
2018-12-12T19:48:30.421Z,5.93
2018-12-12T19:50:34.282Z,5.75
2018-12-12T19:52:37.773Z,7.00
2018-12-12T19:54:41.266Z,6.10
2018-12-12T19:56:44.803Z,6.10
2018-12-12T19:58:48.435Z,5.93
2018-12-12T20:00:52.343Z,6.67
2018-12-12T20:02:56.273Z,7.10
2018-12-12T20:05:00.178Z,6.83
2018-12-12T20:07:04.286Z,6.33
2018-12-12T20:09:08.662Z,6.83
2018-12-12T20:11:12.514Z,6.40
2018-12-12T20:13:16.298Z,5.95
2018-12-12T20:15:25.111Z,7.20
2018-12-12T20:17:28.612Z,11.73
2018-12-12T20:19:32.156Z,11.38
2018-12-12T20:21:35.665Z,7.00
2018-12-12T20:23:38.924Z,7.60
2018-12-12T20:25:43.103Z,7.05
2018-12-12T20:27:46.597Z,6.92
2018-12-12T20:29:49.870Z,6.33
2018-12-12T20:31:53.895Z,6.40
2018-12-12T20:33:57.681Z,6.50
2018-12-12T20:36:01.190Z,6.75
2018-12-12T20:38:04.802Z,8.20
2018-12-12T20:40:09.145Z,6.75
2018-12-12T20:42:13.199Z,7.30
2018-12-12T20:44:16.422Z,6.65
2018-12-12T20:46:19.669Z,6.43
2018-12-12T20:48:23.198Z,6.70
2018-12-12T20:50:27.098Z,6.92
2018-12-12T20:52:30.590Z,7.80
2018-12-12T20:54:33.823Z,7.03
2018-12-12T20:56:37.046Z,7.30
2018-12-12T20:58:40.567Z,8.00
2018-12-12T21:00:44.059Z,8.38
2018-12-12T21:02:47.492Z,8.33
2018-12-12T21:04:51.089Z,8.20
2018-12-12T21:06:54.310Z,7.90
2018-12-12T21:08:59.250Z,7.90
2018-12-12T21:11:02.486Z,7.90
2018-12-12T21:13:06.493Z,7.40
2018-12-12T21:15:10.074Z,7.33
2018-12-12T21:17:15.176Z,7.60
2018-12-12T21:19:18.782Z,7.40
2018-12-12T21:21:22.286Z,7.67
2018-12-12T21:23:26.113Z,8.10
2018-12-12T21:25:31.868Z,7.37
2018-12-12T21:27:35.511Z,7.70
2018-12-12T21:29:39.066Z,7.08
2018-12-12T21:31:43.179Z,6.90
2018-12-12T21:33:46.690Z,6.85
2018-12-12T21:35:50.430Z,6.80
2018-12-12T21:37:54.005Z,6.50
2018-12-12T21:39:57.534Z,6.70
2018-12-12T21:42:01.199Z,5.90
2018-12-12T21:44:05.252Z,6.00
2018-12-12T21:46:08.773Z,10.15
2018-12-12T21:48:12.315Z,6.90
2018-12-12T21:50:15.686Z,6.17
2018-12-12T21:52:18.887Z,6.50
2018-12-12T21:54:22.811Z,6.10
2018-12-12T21:56:26.438Z,4.67
2018-12-12T21:58:29.978Z,4.60
2018-12-12T22:00:34.553Z,8.85
2018-12-12T22:02:38.351Z,9.58
2018-12-12T22:04:41.541Z,10.13
2018-12-12T22:06:45.074Z,5.05
2018-12-12T22:08:48.534Z,4.40
2018-12-12T22:10:52.607Z,4.50
2018-12-12T22:12:55.843Z,4.53
2018-12-12T22:14:59.763Z,4.30
2018-12-12T22:17:02.949Z,6.50
2018-12-12T22:19:06.764Z,6.83
2018-12-12T22:21:09.970Z,4.60
2018-12-12T22:23:13.242Z,3.90
2018-12-12T22:25:16.907Z,3.60
2018-12-12T22:27:20.286Z,3.17
2018-12-12T22:29:23.491Z,2.90
2018-12-12T22:31:27.381Z,2.52
2018-12-12T22:33:31.016Z,2.80
2018-12-12T22:35:34.910Z,2.83
2018-12-12T22:37:38.772Z,2.52
2018-12-12T22:39:42.309Z,2.95
2018-12-12T22:41:45.862Z,2.62
2018-12-12T22:43:49.122Z,2.80
2018-12-12T22:45:52.641Z,2.80
2018-12-12T22:47:56.710Z,2.50
2018-12-12T22:50:00.458Z,2.83
2018-12-12T22:52:03.964Z,2.72
2018-12-12T22:54:07.435Z,2.35
2018-12-12T22:56:10.914Z,2.42
2018-12-12T22:58:14.626Z,3.50
2018-12-12T23:00:24.379Z,2.83
2018-12-12T23:02:27.898Z,2.87
2018-12-12T23:04:31.539Z,2.70
2018-12-12T23:06:34.979Z,3.33
2018-12-12T23:08:38.527Z,3.17
2018-12-12T23:10:42.242Z,3.27
2018-12-12T23:12:45.722Z,3.08
2018-12-12T23:14:49.230Z,3.42
2018-12-12T23:16:52.759Z,3.33
2018-12-12T23:18:56.263Z,2.80
2018-12-12T23:20:59.437Z,2.58
2018-12-12T23:23:02.642Z,2.77
2018-12-12T23:25:06.714Z,3.30
2018-12-12T23:27:10.180Z,3.10
2018-12-12T23:29:13.690Z,2.62
2018-12-12T23:31:17.212Z,2.70
2018-12-12T23:33:20.800Z,2.95
2018-12-12T23:35:24.501Z,2.40
2018-12-12T23:37:28.199Z,3.70
2018-12-12T23:39:31.433Z,3.13
2018-12-12T23:41:34.962Z,2.60
2018-12-12T23:43:38.547Z,3.05
2018-12-12T23:45:42.727Z,3.05
2018-12-12T23:47:46.266Z,2.50
2018-12-12T23:49:49.728Z,2.85
2018-12-12T23:51:52.933Z,2.73
2018-12-12T23:53:56.438Z,2.80
2018-12-12T23:55:59.914Z,2.80
2018-12-12T23:58:03.109Z,2.70
